Mirgab Vi — ZGAO4 — position and weather

sailwx.info

Track history (hours):
 
Tides and Currents Weather Stations Pressure Air Temp Water Temp Dewpoint Dewpoint Depression Visibility Wind Speed Wind Dir Waves Ship Positions

Mirgab Vi

Last reported at 2014-Aug-01 13:31 UTC. Time now 2014-Aug-01 13:59 UTC.
Position N 43°16' E 006°38'.

Length 49 m; draft 2.9 m.

Type: Pleasure craft. MMSI: 319394000.

Date/timePositionNaut miles runAvg speedWind from/ knotsBaromVisibWave heightAir tempDewpointWater temp
2014-Aug-01 13:31N 43°16' E 006°38'0 0.0
2014-Aug-01 12:28N 43°16' E 006°38'0 0.0
2014-Aug-01 11:31N 43°16' E 006°38'0 0.0
2014-Aug-01 10:16N 43°16' E 006°38'0 0.0
2014-Aug-01 09:25N 43°16' E 006°38'0 0.0
2014-Aug-01 08:22N 43°16' E 006°38'0 0.0
2014-Aug-01 07:19N 43°16' E 006°38'0 0.0
2014-Aug-01 06:16N 43°16' E 006°38'0 0.0
2014-Aug-01 05:25N 43°16' E 006°38'0 0.0
2014-Aug-01 04:28N 43°16' E 006°38'0 0.0
2014-Aug-01 03:22N 43°16' E 006°38'0 0.0
2014-Aug-01 02:10N 43°16' E 006°38'0 0.0
2014-Aug-01 01:04N 43°16' E 006°38'0 0.0
2014-Aug-01 00:22N 43°16' E 006°38'0 0.0
2014-Jul-31 23:28N 43°16' E 006°38'0 0.0
2014-Jul-31 22:19N 43°16' E 006°38'0 0.0
2014-Jul-31 21:31N 43°16' E 006°38'0 0.0
2014-Jul-31 20:31N 43°16' E 006°38'0 0.0
2014-Jul-31 19:28N 43°16' E 006°38'0 0.0
2014-Jul-31 18:31N 43°16' E 006°38'0 0.0
2014-Jul-31 17:28N 43°16' E 006°38'0 0.0
2014-Jul-31 16:28N 43°16' E 006°38'0 0.0
2014-Jul-31 15:22N 43°16' E 006°38'0 0.0
2014-Jul-31 14:28N 43°16' E 006°38'0 0.0
2014-Jul-31 13:28N 43°16' E 006°38'0 0.0
2014-Jul-31 12:32N 43°16' E 006°38'4 3.9
2014-Jul-31 11:33N 43°15' E 006°43'3 2.9
2014-Jul-31 10:32N 43°14' E 006°40'0 0.0
2014-Jul-31 09:32N 43°14' E 006°40'6 6.1
2014-Jul-31 08:33N 43°17' E 006°47'1212.4
2014-Jul-31 07:33N 43°27' E 006°57'6 6.3
2014-Jul-31 06:33N 43°32' E 007°02'0 0.0
2014-Jul-31 05:33N 43°32' E 007°02'0 0.0
2014-Jul-31 04:33N 43°32' E 007°02'0 0.0
2014-Jul-31 03:33N 43°32' E 007°02'0 0.0
2014-Jul-31 02:21N 43°32' E 007°02'0 0.0
2014-Jul-31 01:33N 43°32' E 007°02'0 0.0
2014-Jul-31 00:33N 43°32' E 007°02'0 0.0
2014-Jul-30 23:33N 43°32' E 007°02'0 0.0
2014-Jul-30 22:33N 43°32' E 007°02'0 0.0
2014-Jul-30 21:33N 43°32' E 007°02'0 0.0
2014-Jul-30 20:24N 43°32' E 007°02'0 0.0
2014-Jul-30 19:33N 43°32' E 007°02'0 0.0
2014-Jul-30 18:33N 43°32' E 007°02'0 0.0
2014-Jul-30 17:33N 43°32' E 007°02'0 0.0
2014-Jul-29 14:32N 43°32' E 007°02'0 0.0
2014-Jul-29 13:32N 43°32' E 007°02'0 0.0
2014-Jul-29 12:32N 43°32' E 007°02'0 0.0
2014-Jul-29 11:32N 43°32' E 007°02'0 0.0
2014-Jul-29 10:20N 43°32' E 007°02'0 0.0
2014-Jul-29 09:32N 43°32' E 007°02'0 0.0
2014-Jul-29 08:32N 43°32' E 007°02'0 0.0
2014-Jul-29 07:32N 43°32' E 007°02'0 0.0
2014-Jul-29 06:32N 43°32' E 007°02'0 0.0
2014-Jul-29 05:32N 43°32' E 007°02'0 0.0
2014-Jul-29 04:32N 43°32' E 007°02'0 0.0
2014-Jul-29 02:32N 43°32' E 007°02'0 0.0
2014-Jul-29 01:29N 43°32' E 007°02'0 0.0
2014-Jul-29 00:32N 43°32' E 007°02'0 0.0
2014-Jul-28 23:23N 43°32' E 007°02'0 0.0
2014-Jul-28 22:32N 43°32' E 007°02'0 0.0
2014-Jul-28 21:26N 43°32' E 007°02'0 0.0
2014-Jul-28 20:32N 43°32' E 007°02'0 0.0
2014-Jul-28 19:32N 43°32' E 007°02'0 0.0
2014-Jul-28 18:17N 43°32' E 007°02'0 0.0
2014-Jul-28 17:23N 43°32' E 007°02'0 0.0
2014-Jul-28 16:29N 43°32' E 007°02'0 0.0
2014-Jul-28 15:29N 43°32' E 007°02'0 0.0
2014-Jul-28 14:32N 43°32' E 007°02'0 0.0
2014-Jul-28 13:32N 43°32' E 007°02'0 0.0
2014-Jul-28 12:32N 43°32' E 007°02'0 0.0
2014-Jul-28 11:23N 43°32' E 007°02'0 0.0
2014-Jul-28 10:23N 43°32' E 007°02'0 0.0
2014-Jul-28 09:32N 43°32' E 007°02'0 0.0
2014-Jul-28 08:26N 43°32' E 007°02'0 0.0
2014-Jul-28 07:32N 43°32' E 007°02'0 0.0
2014-Jul-28 06:23N 43°32' E 007°02'0 0.0
2014-Jul-28 05:26N 43°32' E 007°02'0 0.0
2014-Jul-28 04:32N 43°32' E 007°02'0 0.0
2014-Jul-28 03:32N 43°32' E 007°02'0 0.0
2014-Jul-28 02:32N 43°32' E 007°02'0 0.0
2014-Jul-28 01:32N 43°32' E 007°02'0 0.0
2014-Jul-28 00:29N 43°32' E 007°02'0 0.0
2014-Jul-27 23:32N 43°32' E 007°02'0 0.0
2014-Jul-27 22:32N 43°32' E 007°02'0 0.0
2014-Jul-27 21:32N 43°32' E 007°02'0 0.0
2014-Jul-27 20:32N 43°32' E 007°02'0 0.0
2014-Jul-27 19:32N 43°32' E 007°02'0 0.0
2014-Jul-27 18:23N 43°32' E 007°02'0 0.0
2014-Jul-27 17:28N 43°32' E 007°02'0 0.0
2014-Jul-27 16:26N 43°32' E 007°02'0 0.0
2014-Jul-27 15:29N 43°32' E 007°02'0 0.0
2014-Jul-27 14:32N 43°32' E 007°02'0 0.0
2014-Jul-27 13:20N 43°32' E 007°02'0 0.0
2014-Jul-27 12:32N 43°32' E 007°02'0 0.0
2014-Jul-27 11:29N 43°32' E 007°02'0 0.0
2014-Jul-27 10:26N 43°32' E 007°02'0 0.0
2014-Jul-27 09:32N 43°32' E 007°02'0 0.0
2014-Jul-27 08:32N 43°32' E 007°02'0 0.0
2014-Jul-27 07:29N 43°32' E 007°02'0 0.0
2014-Jul-27 06:32N 43°32' E 007°02'0 0.0
2014-Jul-27 05:32N 43°32' E 007°02'0 0.0
2014-Jul-27 04:32N 43°32' E 007°02'0 0.0
2014-Jul-27 03:32N 43°32' E 007°02'0 0.0
2014-Jul-27 02:32N 43°32' E 007°02'0 0.0
2014-Jul-27 01:26N 43°32' E 007°02'0 0.0
2014-Jul-27 00:32N 43°32' E 007°02'0 0.0
2014-Jul-26 23:32N 43°32' E 007°02'0 0.0
2014-Jul-26 22:32N 43°32' E 007°02'0 0.0
2014-Jul-26 21:26N 43°32' E 007°02'0 0.0
2014-Jul-26 20:26N 43°32' E 007°02'0 0.0
2014-Jul-26 19:29N 43°32' E 007°02'0 0.0
2014-Jul-26 18:32N 43°32' E 007°02'0 0.0
2014-Jul-26 17:32N 43°32' E 007°02'0 0.0
2014-Jul-26 16:32N 43°32' E 007°02'0 0.0
2014-Jul-26 15:29N 43°32' E 007°02'0 0.0
2014-Jul-26 14:26N 43°32' E 007°02'0 0.0
2014-Jul-26 13:32N 43°32' E 007°02'0 0.0
2014-Jul-26 12:32N 43°32' E 007°02'0 0.0
2014-Jul-26 11:20N 43°32' E 007°02'0 0.0
2014-Jul-26 10:32N 43°32' E 007°02'0 0.0
2014-Jul-26 09:32N 43°32' E 007°02'0 0.0
2014-Jul-26 08:26N 43°32' E 007°02'0 0.0
2014-Jul-26 07:29N 43°32' E 007°02'0 0.0
2014-Jul-26 06:32N 43°32' E 007°02'0 0.0
2014-Jul-26 05:32N 43°32' E 007°02'0 0.0
2014-Jul-26 04:32N 43°32' E 007°02'0 0.0
2014-Jul-26 03:26N 43°32' E 007°02'0 0.0
2014-Jul-26 02:23N 43°32' E 007°02'0 0.0
2014-Jul-26 01:32N 43°32' E 007°02'0 0.0
2014-Jul-26 00:32N 43°32' E 007°02'0 0.0
2014-Jul-25 23:32N 43°32' E 007°02'0 0.0
2014-Jul-25 22:32N 43°32' E 007°02'0 0.0
2014-Jul-25 21:32N 43°32' E 007°02'0 0.0
2014-Jul-25 20:32N 43°32' E 007°02'0 0.0
2014-Jul-25 19:32N 43°32' E 007°02'0 0.0
2014-Jul-25 18:11N 43°32' E 007°02'0 0.0
2014-Jul-25 16:32N 43°32' E 007°02'0 0.0
2014-Jul-25 15:32N 43°32' E 007°02'0 0.0
2014-Jul-25 14:32N 43°32' E 007°02'0 0.0
2014-Jul-25 13:26N 43°32' E 007°02'0 0.0
2014-Jul-25 12:32N 43°32' E 007°02'0 0.0
2014-Jul-25 11:32N 43°32' E 007°02'0 0.0
2014-Jul-25 10:32N 43°32' E 007°02'0 0.0
2014-Jul-25 09:32N 43°32' E 007°02'0 0.0
2014-Jul-25 08:32N 43°32' E 007°02'0 0.0
2014-Jul-25 07:26N 43°32' E 007°02'0 0.0
2014-Jul-25 06:26N 43°32' E 007°02'0 0.0
2014-Jul-25 05:32N 43°32' E 007°02'0 0.0
2014-Jul-25 04:32N 43°32' E 007°02'0 0.0
2014-Jul-25 03:29N 43°32' E 007°02'0 0.0
2014-Jul-25 02:32N 43°32' E 007°02'0 0.0
2014-Jul-25 01:32N 43°32' E 007°02'0 0.0
2014-Jul-25 00:32N 43°32' E 007°02'0 0.0
2014-Jul-24 23:20N 43°32' E 007°02'0 0.0
2014-Jul-24 22:26N 43°32' E 007°02'0 0.0
2014-Jul-24 21:32N 43°32' E 007°02'0 0.0
2014-Jul-24 20:32N 43°32' E 007°02'0 0.0
2014-Jul-24 19:32N 43°32' E 007°02'0 0.0
2014-Jul-24 18:32N 43°32' E 007°02'0 0.0
2014-Jul-24 17:29N 43°32' E 007°02'0 0.0
2014-Jul-24 16:32N 43°32' E 007°02'0 0.0
2014-Jul-24 15:32N 43°32' E 007°02'0 0.0
2014-Jul-24 14:32N 43°32' E 007°02'0 0.0
2014-Jul-24 13:32N 43°32' E 007°02'0 0.0
2014-Jul-24 12:29N 43°32' E 007°02'0 0.0
2014-Jul-24 11:32N 43°32' E 007°02'0 0.0
2014-Jul-24 10:32N 43°32' E 007°02'0 0.0
2014-Jul-24 09:32N 43°32' E 007°02'0 0.0
2014-Jul-24 08:32N 43°32' E 007°02'0 0.0
2014-Jul-24 07:32N 43°32' E 007°02'0 0.0
2014-Jul-24 06:32N 43°32' E 007°02'0 0.0
2014-Jul-24 05:32N 43°32' E 007°02'0 0.0
2014-Jul-24 04:32N 43°32' E 007°02'0 0.0
2014-Jul-24 03:32N 43°32' E 007°02'0 0.0
2014-Jul-24 02:26N 43°32' E 007°02'0 0.0
2014-Jul-24 01:26N 43°32' E 007°02'0 0.0
2014-Jul-24 00:29N 43°32' E 007°02'0 0.0
2014-Jul-23 23:26N 43°32' E 007°02'0 0.0
2014-Jul-23 22:32N 43°32' E 007°02'0 0.0
2014-Jul-23 21:29N 43°32' E 007°02'0 0.0
2014-Jul-23 20:23N 43°32' E 007°02'0 0.0
2014-Jul-23 19:29N 43°32' E 007°02'0 0.0
2014-Jul-23 18:26N 43°32' E 007°02'0 0.0
2014-Jul-23 17:26N 43°32' E 007°02'0 0.0
2014-Jul-23 16:29N 43°32' E 007°02'0 0.0
2014-Jul-23 15:32N 43°32' E 007°02'0 0.0
2014-Jul-23 14:08N 43°32' E 007°02'0 0.0
2014-Jul-23 13:32N 43°32' E 007°02'0 0.0
2014-Jul-23 12:32N 43°32' E 007°02'0 0.0
2014-Jul-23 11:32N 43°32' E 007°02'0 0.0
2014-Jul-23 10:32N 43°32' E 007°02'0 0.0
2014-Jul-23 09:32N 43°32' E 007°02'0 0.0
2014-Jul-23 08:32N 43°32' E 007°02'0 0.0
2014-Jul-23 07:26N 43°32' E 007°02'0 0.0
2014-Jul-23 06:32N 43°32' E 007°02'0 0.0
2014-Jul-23 05:32N 43°32' E 007°02'0 0.0
2014-Jul-23 04:23N 43°32' E 007°02'0 0.0
2014-Jul-23 03:32N 43°32' E 007°02'0 0.0
2014-Jul-23 02:32N 43°32' E 007°02'0 0.0
2014-Jul-23 01:32N 43°32' E 007°02'0 0.0
2014-Jul-23 00:32N 43°32' E 007°02'0 0.0
2014-Jul-22 23:26N 43°32' E 007°02'0 0.0
2014-Jul-22 22:32N 43°32' E 007°02'0 0.0
2014-Jul-22 21:26N 43°32' E 007°02'0 0.0
2014-Jul-22 20:20N 43°32' E 007°02'0 0.0
2014-Jul-22 19:32N 43°32' E 007°02'0 0.0
2014-Jul-22 18:26N 43°32' E 007°02'0 0.0
2014-Jul-22 17:32N 43°32' E 007°02'0 0.0
2014-Jul-22 16:32N 43°32' E 007°02'0 0.0
2014-Jul-22 15:32N 43°32' E 007°02'0 0.0
2014-Jul-22 14:32N 43°32' E 007°02'  
Track history (hours):
 
Tides and Currents Weather Stations Pressure Air Temp Water Temp Dewpoint Dewpoint Depression Visibility Wind Speed Wind Dir Waves Ship Positions

Mirgab Vi

Last reported at 2014-Aug-01 13:31 UTC. Time now 2014-Aug-01 13:59 UTC.
Position N 43°16' E 006°38'.

Length 49 m; draft 2.9 m.

Type: Pleasure craft. MMSI: 319394000.

Date/timePositionNaut miles runAvg speedWind from/ knotsBaromVisibWave heightAir tempDewpointWater temp
2014-Aug-01 13:31N 43°16' E 006°38'0 0.0
2014-Aug-01 12:28N 43°16' E 006°38'0 0.0
2014-Aug-01 11:31N 43°16' E 006°38'0 0.0
2014-Aug-01 10:16N 43°16' E 006°38'0 0.0
2014-Aug-01 09:25N 43°16' E 006°38'0 0.0
2014-Aug-01 08:22N 43°16' E 006°38'0 0.0
2014-Aug-01 07:19N 43°16' E 006°38'0 0.0
2014-Aug-01 06:16N 43°16' E 006°38'0 0.0
2014-Aug-01 05:25N 43°16' E 006°38'0 0.0
2014-Aug-01 04:28N 43°16' E 006°38'0 0.0
2014-Aug-01 03:22N 43°16' E 006°38'0 0.0
2014-Aug-01 02:10N 43°16' E 006°38'0 0.0
2014-Aug-01 01:04N 43°16' E 006°38'0 0.0
2014-Aug-01 00:22N 43°16' E 006°38'0 0.0
2014-Jul-31 23:28N 43°16' E 006°38'0 0.0
2014-Jul-31 22:19N 43°16' E 006°38'0 0.0
2014-Jul-31 21:31N 43°16' E 006°38'0 0.0
2014-Jul-31 20:31N 43°16' E 006°38'0 0.0
2014-Jul-31 19:28N 43°16' E 006°38'0 0.0
2014-Jul-31 18:31N 43°16' E 006°38'0 0.0
2014-Jul-31 17:28N 43°16' E 006°38'0 0.0
2014-Jul-31 16:28N 43°16' E 006°38'0 0.0
2014-Jul-31 15:22N 43°16' E 006°38'0 0.0
2014-Jul-31 14:28N 43°16' E 006°38'0 0.0
2014-Jul-31 13:28N 43°16' E 006°38'0 0.0
2014-Jul-31 12:32N 43°16' E 006°38'4 3.9
2014-Jul-31 11:33N 43°15' E 006°43'3 2.9
2014-Jul-31 10:32N 43°14' E 006°40'0 0.0
2014-Jul-31 09:32N 43°14' E 006°40'6 6.1
2014-Jul-31 08:33N 43°17' E 006°47'1212.4
2014-Jul-31 07:33N 43°27' E 006°57'6 6.3
2014-Jul-31 06:33N 43°32' E 007°02'0 0.0
2014-Jul-31 05:33N 43°32' E 007°02'0 0.0
2014-Jul-31 04:33N 43°32' E 007°02'0 0.0
2014-Jul-31 03:33N 43°32' E 007°02'0 0.0
2014-Jul-31 02:21N 43°32' E 007°02'0 0.0
2014-Jul-31 01:33N 43°32' E 007°02'0 0.0
2014-Jul-31 00:33N 43°32' E 007°02'0 0.0
2014-Jul-30 23:33N 43°32' E 007°02'0 0.0
2014-Jul-30 22:33N 43°32' E 007°02'0 0.0
2014-Jul-30 21:33N 43°32' E 007°02'0 0.0
2014-Jul-30 20:24N 43°32' E 007°02'0 0.0
2014-Jul-30 19:33N 43°32' E 007°02'0 0.0
2014-Jul-30 18:33N 43°32' E 007°02'0 0.0
2014-Jul-30 17:33N 43°32' E 007°02'0 0.0
2014-Jul-29 14:32N 43°32' E 007°02'0 0.0
2014-Jul-29 13:32N 43°32' E 007°02'0 0.0
2014-Jul-29 12:32N 43°32' E 007°02'0 0.0
2014-Jul-29 11:32N 43°32' E 007°02'0 0.0
2014-Jul-29 10:20N 43°32' E 007°02'0 0.0
2014-Jul-29 09:32N 43°32' E 007°02'0 0.0
2014-Jul-29 08:32N 43°32' E 007°02'0 0.0
2014-Jul-29 07:32N 43°32' E 007°02'0 0.0
2014-Jul-29 06:32N 43°32' E 007°02'0 0.0
2014-Jul-29 05:32N 43°32' E 007°02'0 0.0
2014-Jul-29 04:32N 43°32' E 007°02'0 0.0
2014-Jul-29 02:32N 43°32' E 007°02'0 0.0
2014-Jul-29 01:29N 43°32' E 007°02'0 0.0
2014-Jul-29 00:32N 43°32' E 007°02'0 0.0
2014-Jul-28 23:23N 43°32' E 007°02'0 0.0
2014-Jul-28 22:32N 43°32' E 007°02'0 0.0
2014-Jul-28 21:26N 43°32' E 007°02'0 0.0
2014-Jul-28 20:32N 43°32' E 007°02'0 0.0
2014-Jul-28 19:32N 43°32' E 007°02'0 0.0
2014-Jul-28 18:17N 43°32' E 007°02'0 0.0
2014-Jul-28 17:23N 43°32' E 007°02'0 0.0
2014-Jul-28 16:29N 43°32' E 007°02'0 0.0
2014-Jul-28 15:29N 43°32' E 007°02'0 0.0
2014-Jul-28 14:32N 43°32' E 007°02'0 0.0
2014-Jul-28 13:32N 43°32' E 007°02'0 0.0
2014-Jul-28 12:32N 43°32' E 007°02'0 0.0
2014-Jul-28 11:23N 43°32' E 007°02'0 0.0
2014-Jul-28 10:23N 43°32' E 007°02'0 0.0
2014-Jul-28 09:32N 43°32' E 007°02'0 0.0
2014-Jul-28 08:26N 43°32' E 007°02'0 0.0
2014-Jul-28 07:32N 43°32' E 007°02'0 0.0
2014-Jul-28 06:23N 43°32' E 007°02'0 0.0
2014-Jul-28 05:26N 43°32' E 007°02'0 0.0
2014-Jul-28 04:32N 43°32' E 007°02'0 0.0
2014-Jul-28 03:32N 43°32' E 007°02'0 0.0
2014-Jul-28 02:32N 43°32' E 007°02'0 0.0
2014-Jul-28 01:32N 43°32' E 007°02'0 0.0
2014-Jul-28 00:29N 43°32' E 007°02'0 0.0
2014-Jul-27 23:32N 43°32' E 007°02'0 0.0
2014-Jul-27 22:32N 43°32' E 007°02'0 0.0
2014-Jul-27 21:32N 43°32' E 007°02'0 0.0
2014-Jul-27 20:32N 43°32' E 007°02'0 0.0
2014-Jul-27 19:32N 43°32' E 007°02'0 0.0
2014-Jul-27 18:23N 43°32' E 007°02'0 0.0
2014-Jul-27 17:28N 43°32' E 007°02'0 0.0
2014-Jul-27 16:26N 43°32' E 007°02'0 0.0
2014-Jul-27 15:29N 43°32' E 007°02'0 0.0
2014-Jul-27 14:32N 43°32' E 007°02'0 0.0
2014-Jul-27 13:20N 43°32' E 007°02'0 0.0
2014-Jul-27 12:32N 43°32' E 007°02'0 0.0
2014-Jul-27 11:29N 43°32' E 007°02'0 0.0
2014-Jul-27 10:26N 43°32' E 007°02'0 0.0
2014-Jul-27 09:32N 43°32' E 007°02'0 0.0
2014-Jul-27 08:32N 43°32' E 007°02'0 0.0
2014-Jul-27 07:29N 43°32' E 007°02'0 0.0
2014-Jul-27 06:32N 43°32' E 007°02'0 0.0
2014-Jul-27 05:32N 43°32' E 007°02'0 0.0
2014-Jul-27 04:32N 43°32' E 007°02'0 0.0
2014-Jul-27 03:32N 43°32' E 007°02'0 0.0
2014-Jul-27 02:32N 43°32' E 007°02'0 0.0
2014-Jul-27 01:26N 43°32' E 007°02'0 0.0
2014-Jul-27 00:32N 43°32' E 007°02'0 0.0
2014-Jul-26 23:32N 43°32' E 007°02'0 0.0
2014-Jul-26 22:32N 43°32' E 007°02'0 0.0
2014-Jul-26 21:26N 43°32' E 007°02'0 0.0
2014-Jul-26 20:26N 43°32' E 007°02'0 0.0
2014-Jul-26 19:29N 43°32' E 007°02'0 0.0
2014-Jul-26 18:32N 43°32' E 007°02'0 0.0
2014-Jul-26 17:32N 43°32' E 007°02'0 0.0
2014-Jul-26 16:32N 43°32' E 007°02'0 0.0
2014-Jul-26 15:29N 43°32' E 007°02'0 0.0
2014-Jul-26 14:26N 43°32' E 007°02'0 0.0
2014-Jul-26 13:32N 43°32' E 007°02'0 0.0
2014-Jul-26 12:32N 43°32' E 007°02'0 0.0
2014-Jul-26 11:20N 43°32' E 007°02'0 0.0
2014-Jul-26 10:32N 43°32' E 007°02'0 0.0
2014-Jul-26 09:32N 43°32' E 007°02'0 0.0
2014-Jul-26 08:26N 43°32' E 007°02'0 0.0
2014-Jul-26 07:29N 43°32' E 007°02'0 0.0
2014-Jul-26 06:32N 43°32' E 007°02'0 0.0
2014-Jul-26 05:32N 43°32' E 007°02'0 0.0
2014-Jul-26 04:32N 43°32' E 007°02'0 0.0
2014-Jul-26 03:26N 43°32' E 007°02'0 0.0
2014-Jul-26 02:23N 43°32' E 007°02'0 0.0
2014-Jul-26 01:32N 43°32' E 007°02'0 0.0
2014-Jul-26 00:32N 43°32' E 007°02'0 0.0
2014-Jul-25 23:32N 43°32' E 007°02'0 0.0
2014-Jul-25 22:32N 43°32' E 007°02'0 0.0
2014-Jul-25 21:32N 43°32' E 007°02'0 0.0
2014-Jul-25 20:32N 43°32' E 007°02'0 0.0
2014-Jul-25 19:32N 43°32' E 007°02'0 0.0
2014-Jul-25 18:11N 43°32' E 007°02'0 0.0
2014-Jul-25 16:32N 43°32' E 007°02'0 0.0
2014-Jul-25 15:32N 43°32' E 007°02'0 0.0
2014-Jul-25 14:32N 43°32' E 007°02'0 0.0
2014-Jul-25 13:26N 43°32' E 007°02'0 0.0
2014-Jul-25 12:32N 43°32' E 007°02'0 0.0
2014-Jul-25 11:32N 43°32' E 007°02'0 0.0
2014-Jul-25 10:32N 43°32' E 007°02'0 0.0
2014-Jul-25 09:32N 43°32' E 007°02'0 0.0
2014-Jul-25 08:32N 43°32' E 007°02'0 0.0
2014-Jul-25 07:26N 43°32' E 007°02'0 0.0
2014-Jul-25 06:26N 43°32' E 007°02'0 0.0
2014-Jul-25 05:32N 43°32' E 007°02'0 0.0
2014-Jul-25 04:32N 43°32' E 007°02'0 0.0
2014-Jul-25 03:29N 43°32' E 007°02'0 0.0
2014-Jul-25 02:32N 43°32' E 007°02'0 0.0
2014-Jul-25 01:32N 43°32' E 007°02'0 0.0
2014-Jul-25 00:32N 43°32' E 007°02'0 0.0
2014-Jul-24 23:20N 43°32' E 007°02'0 0.0
2014-Jul-24 22:26N 43°32' E 007°02'0 0.0
2014-Jul-24 21:32N 43°32' E 007°02'0 0.0
2014-Jul-24 20:32N 43°32' E 007°02'0 0.0
2014-Jul-24 19:32N 43°32' E 007°02'0 0.0
2014-Jul-24 18:32N 43°32' E 007°02'0 0.0
2014-Jul-24 17:29N 43°32' E 007°02'0 0.0
2014-Jul-24 16:32N 43°32' E 007°02'0 0.0
2014-Jul-24 15:32N 43°32' E 007°02'0 0.0
2014-Jul-24 14:32N 43°32' E 007°02'0 0.0
2014-Jul-24 13:32N 43°32' E 007°02'0 0.0
2014-Jul-24 12:29N 43°32' E 007°02'0 0.0
2014-Jul-24 11:32N 43°32' E 007°02'0 0.0
2014-Jul-24 10:32N 43°32' E 007°02'0 0.0
2014-Jul-24 09:32N 43°32' E 007°02'0 0.0
2014-Jul-24 08:32N 43°32' E 007°02'0 0.0
2014-Jul-24 07:32N 43°32' E 007°02'0 0.0
2014-Jul-24 06:32N 43°32' E 007°02'0 0.0
2014-Jul-24 05:32N 43°32' E 007°02'0 0.0
2014-Jul-24 04:32N 43°32' E 007°02'0 0.0
2014-Jul-24 03:32N 43°32' E 007°02'0 0.0
2014-Jul-24 02:26N 43°32' E 007°02'0 0.0
2014-Jul-24 01:26N 43°32' E 007°02'0 0.0
2014-Jul-24 00:29N 43°32' E 007°02'0 0.0
2014-Jul-23 23:26N 43°32' E 007°02'0 0.0
2014-Jul-23 22:32N 43°32' E 007°02'0 0.0
2014-Jul-23 21:29N 43°32' E 007°02'0 0.0
2014-Jul-23 20:23N 43°32' E 007°02'0 0.0
2014-Jul-23 19:29N 43°32' E 007°02'0 0.0
2014-Jul-23 18:26N 43°32' E 007°02'0 0.0
2014-Jul-23 17:26N 43°32' E 007°02'0 0.0
2014-Jul-23 16:29N 43°32' E 007°02'0 0.0
2014-Jul-23 15:32N 43°32' E 007°02'0 0.0
2014-Jul-23 14:08N 43°32' E 007°02'0 0.0
2014-Jul-23 13:32N 43°32' E 007°02'0 0.0
2014-Jul-23 12:32N 43°32' E 007°02'0 0.0
2014-Jul-23 11:32N 43°32' E 007°02'0 0.0
2014-Jul-23 10:32N 43°32' E 007°02'0 0.0
2014-Jul-23 09:32N 43°32' E 007°02'0 0.0
2014-Jul-23 08:32N 43°32' E 007°02'0 0.0
2014-Jul-23 07:26N 43°32' E 007°02'0 0.0
2014-Jul-23 06:32N 43°32' E 007°02'0 0.0
2014-Jul-23 05:32N 43°32' E 007°02'0 0.0
2014-Jul-23 04:23N 43°32' E 007°02'0 0.0
2014-Jul-23 03:32N 43°32' E 007°02'0 0.0
2014-Jul-23 02:32N 43°32' E 007°02'0 0.0
2014-Jul-23 01:32N 43°32' E 007°02'0 0.0
2014-Jul-23 00:32N 43°32' E 007°02'0 0.0
2014-Jul-22 23:26N 43°32' E 007°02'0 0.0
2014-Jul-22 22:32N 43°32' E 007°02'0 0.0
2014-Jul-22 21:26N 43°32' E 007°02'0 0.0
2014-Jul-22 20:20N 43°32' E 007°02'0 0.0
2014-Jul-22 19:32N 43°32' E 007°02'0 0.0
2014-Jul-22 18:26N 43°32' E 007°02'0 0.0
2014-Jul-22 17:32N 43°32' E 007°02'0 0.0
2014-Jul-22 16:32N 43°32' E 007°02'0 0.0
2014-Jul-22 15:32N 43°32' E 007°02'0 0.0
2014-Jul-22 14:32N 43°32' E 007°02'  

Dump ship's entire track history